createdAt,value
2018-11-28T00:00:13.022Z,37.30
2018-11-28T00:02:41.357Z,36.53
2018-11-28T00:05:11.102Z,36.90
2018-11-28T00:07:40.464Z,32.23
2018-11-28T00:10:11.502Z,39.60
2018-11-28T00:12:40.882Z,35.43
2018-11-28T00:15:11.276Z,37.47
2018-11-28T00:17:39.869Z,33.50
2018-11-28T00:20:14.094Z,36.70
2018-11-28T00:22:43.369Z,43.37
2018-11-28T00:25:12.378Z,34.80
2018-11-28T00:27:41.345Z,45.47
2018-11-28T00:30:14.809Z,41.77
2018-11-28T00:32:43.663Z,35.47
2018-11-28T00:35:15.719Z,35.03
2018-11-28T00:37:44.857Z,37.67
2018-11-28T00:40:14.483Z,34.27
2018-11-28T00:42:42.861Z,45.23
2018-11-28T00:45:13.130Z,38.20
2018-11-28T00:47:41.373Z,44.30
2018-11-28T00:50:18.346Z,38.07
2018-11-28T00:52:46.947Z,41.50
2018-11-28T00:55:16.103Z,36.77
2018-11-28T00:57:44.644Z,37.83
2018-11-28T01:00:16.935Z,34.87
2018-11-28T01:02:45.348Z,37.97
2018-11-28T01:05:14.076Z,34.33
2018-11-28T01:07:42.901Z,38.33
2018-11-28T01:10:13.084Z,39.40
2018-11-28T01:12:41.361Z,34.80
2018-11-28T01:15:11.834Z,44.43
2018-11-28T01:17:40.097Z,41.90
2018-11-28T01:20:12.605Z,35.00
2018-11-28T01:22:40.841Z,39.33
2018-11-28T01:25:10.061Z,43.67
2018-11-28T01:27:38.358Z,39.37
2018-11-28T01:30:23.894Z,42.37
2018-11-28T01:32:52.345Z,34.17
2018-11-28T01:35:21.447Z,37.50
2018-11-28T01:37:49.722Z,35.60
2018-11-28T01:40:21.080Z,33.63
2018-11-28T01:42:49.328Z,34.33
2018-11-28T01:45:18.565Z,34.33
2018-11-28T01:47:46.880Z,37.07
2018-11-28T01:50:20.062Z,36.47
2018-11-28T01:52:48.507Z,41.33
2018-11-28T01:55:19.753Z,35.80
2018-11-28T01:57:48.900Z,35.53
2018-11-28T02:00:21.110Z,39.47
2018-11-28T02:02:54.822Z,39.33
2018-11-28T02:05:23.083Z,34.47
2018-11-28T02:07:51.602Z,45.07
2018-11-28T02:10:19.823Z,38.37
2018-11-28T02:12:48.139Z,36.90
2018-11-28T02:15:18.281Z,37.17
2018-11-28T02:17:46.513Z,33.10
2018-11-28T02:20:15.784Z,39.83
2018-11-28T02:22:44.205Z,36.70
2018-11-28T02:25:16.495Z,30.40
2018-11-28T02:27:46.355Z,35.23
2018-11-28T02:30:16.381Z,34.33
2018-11-28T02:32:45.129Z,36.57
2018-11-28T02:35:14.321Z,37.57
2018-11-28T02:37:42.614Z,37.87
2018-11-28T02:40:14.777Z,34.77
2018-11-28T02:42:43.062Z,36.77
2018-11-28T02:45:12.693Z,37.60
2018-11-28T02:47:40.909Z,33.53
2018-11-28T02:50:09.141Z,34.47
2018-11-28T02:52:37.386Z,36.80
2018-11-28T02:55:07.581Z,37.27
2018-11-28T02:57:35.854Z,42.43
2018-11-28T03:00:07.327Z,35.37
2018-11-28T03:02:39.874Z,37.43
2018-11-28T03:05:09.592Z,38.40
2018-11-28T03:07:38.192Z,38.03
2018-11-28T03:10:09.770Z,36.70
2018-11-28T03:12:37.993Z,47.27
2018-11-28T03:15:07.882Z,33.90
2018-11-28T03:17:36.168Z,41.07
2018-11-28T03:20:05.570Z,32.53
2018-11-28T03:22:33.809Z,38.23
2018-11-28T03:25:02.094Z,30.80
2018-11-28T03:27:30.298Z,34.60
2018-11-28T03:29:58.660Z,37.33
2018-11-28T03:32:26.975Z,42.40
2018-11-28T03:34:55.229Z,36.03
2018-11-28T03:37:23.468Z,29.47
2018-11-28T03:39:51.713Z,41.00
2018-11-28T03:42:19.966Z,42.33
2018-11-28T03:44:49.510Z,37.50
2018-11-28T03:47:17.743Z,38.77
2018-11-28T03:49:45.908Z,38.70
2018-11-28T03:52:14.097Z,37.73
2018-11-28T03:54:42.442Z,47.73
2018-11-28T03:57:10.643Z,33.73
2018-11-28T03:59:38.895Z,41.10
2018-11-28T04:02:07.144Z,40.23
2018-11-28T04:04:35.336Z,38.87
2018-11-28T04:07:03.614Z,35.73
2018-11-28T04:09:31.894Z,35.20
2018-11-28T04:12:00.134Z,36.83
2018-11-28T04:14:28.326Z,33.33
2018-11-28T04:16:56.538Z,41.73
2018-11-28T04:19:24.789Z,44.50
2018-11-28T04:21:53.342Z,37.80
2018-11-28T04:24:21.505Z,37.37
2018-11-28T04:26:49.730Z,34.40
2018-11-28T04:29:17.928Z,38.80
2018-11-28T04:31:46.134Z,33.30
2018-11-28T04:34:14.427Z,45.67
2018-11-28T04:36:42.617Z,44.57
2018-11-28T04:39:11.067Z,38.53
2018-11-28T04:41:39.347Z,41.70
2018-11-28T04:44:07.570Z,38.03
2018-11-28T04:46:35.769Z,41.67
2018-11-28T04:49:04.798Z,36.20
2018-11-28T04:51:33.020Z,38.20
2018-11-28T04:54:01.201Z,39.83
2018-11-28T04:56:29.420Z,43.30
2018-11-28T04:58:57.669Z,39.03
2018-11-28T05:01:25.944Z,40.27
2018-11-28T05:03:54.749Z,32.30
2018-11-28T05:06:37.249Z,33.60
2018-11-28T05:09:06.422Z,36.10
2018-11-28T05:11:34.625Z,35.47
2018-11-28T05:14:02.826Z,35.43
2018-11-28T05:16:31.100Z,33.93
2018-11-28T05:18:59.342Z,31.33
2018-11-28T05:21:27.568Z,39.07
2018-11-28T05:23:55.867Z,40.20
2018-11-28T05:26:24.502Z,38.37
2018-11-28T05:28:52.722Z,36.10
2018-11-28T05:31:21.050Z,37.47
2018-11-28T05:33:49.257Z,41.07
2018-11-28T05:36:17.446Z,45.50
2018-11-28T05:38:45.694Z,40.17
2018-11-28T05:41:14.029Z,35.80
2018-11-28T05:43:42.217Z,37.00
2018-11-28T05:46:10.704Z,39.10
2018-11-28T05:48:38.956Z,42.07
2018-11-28T05:51:07.202Z,36.13
2018-11-28T05:53:35.394Z,33.40
2018-11-28T05:56:03.717Z,41.63
2018-11-28T05:58:31.909Z,30.37
2018-11-28T06:01:00.184Z,39.70
2018-11-28T06:03:28.408Z,38.07
2018-11-28T06:05:56.635Z,37.10
2018-11-28T06:08:24.794Z,41.27
2018-11-28T06:10:53.259Z,48.43
2018-11-28T06:13:21.614Z,44.23
2018-11-28T06:15:49.910Z,39.03
2018-11-28T06:18:18.426Z,43.27
2018-11-28T06:20:46.739Z,42.27
2018-11-28T06:23:14.987Z,40.70
2018-11-28T06:25:43.184Z,37.00
2018-11-28T06:28:11.397Z,39.23
2018-11-28T06:30:39.649Z,37.87
2018-11-28T06:33:07.897Z,39.83
2018-11-28T06:35:36.086Z,36.40
2018-11-28T06:38:04.648Z,35.03
2018-11-28T06:40:32.844Z,39.13
2018-11-28T06:43:01.155Z,37.23
2018-11-28T06:45:29.366Z,39.00
2018-11-28T06:47:57.574Z,38.20
2018-11-28T06:50:25.818Z,36.80
2018-11-28T06:52:54.184Z,38.43
2018-11-28T06:55:22.642Z,37.90
2018-11-28T06:57:50.896Z,41.93
2018-11-28T07:00:22.350Z,41.43
2018-11-28T07:02:52.637Z,35.70
2018-11-28T07:05:21.471Z,35.03
2018-11-28T07:07:49.889Z,38.07
2018-11-28T07:10:20.208Z,43.23
2018-11-28T07:12:48.455Z,37.63
2018-11-28T07:15:22.427Z,33.53
2018-11-28T07:17:50.700Z,36.80
2018-11-28T07:20:19.070Z,43.60
2018-11-28T07:22:47.223Z,38.40
2018-11-28T07:25:16.810Z,35.97
2018-11-28T07:27:45.713Z,36.33
2018-11-28T07:30:15.972Z,35.13
2018-11-28T07:32:44.439Z,37.63
2018-11-28T07:35:13.360Z,36.63
2018-11-28T07:37:41.628Z,38.90
2018-11-28T07:40:14.979Z,45.17
2018-11-28T07:42:45.273Z,38.97
2018-11-28T07:45:13.633Z,34.17
2018-11-28T07:47:41.842Z,35.13
2018-11-28T07:50:10.551Z,36.67
2018-11-28T07:52:39.334Z,45.10
2018-11-28T07:55:10.343Z,41.70
2018-11-28T07:57:38.857Z,36.93
2018-11-28T08:00:14.425Z,33.47
2018-11-28T08:02:45.116Z,31.93
2018-11-28T08:05:13.838Z,35.97
2018-11-28T08:07:42.119Z,34.97
2018-11-28T08:10:16.049Z,40.10
2018-11-28T08:12:44.529Z,38.10
2018-11-28T08:15:12.864Z,40.57
2018-11-28T08:17:41.125Z,35.23
2018-11-28T08:20:09.410Z,43.67
2018-11-28T08:22:37.715Z,35.33
2018-11-28T08:25:07.034Z,35.47
2018-11-28T08:27:34.988Z,34.23
2018-11-28T08:30:03.512Z,38.93
2018-11-28T08:32:31.723Z,35.97
2018-11-28T08:34:59.987Z,38.00
2018-11-28T08:37:28.279Z,30.87
2018-11-28T08:39:56.640Z,40.17
2018-11-28T08:42:24.863Z,35.27
2018-11-28T08:44:53.161Z,35.23
2018-11-28T08:47:21.291Z,40.23
2018-11-28T08:49:49.500Z,38.63
2018-11-28T08:52:17.747Z,39.50
2018-11-28T08:54:45.984Z,31.90
2018-11-28T08:57:14.185Z,61.93
2018-11-28T08:59:42.365Z,61.13
2018-11-28T09:02:10.542Z,43.90
2018-11-28T09:04:40.704Z,41.20
2018-11-28T09:07:08.917Z,42.40
2018-11-28T09:09:37.216Z,38.70
2018-11-28T09:12:05.673Z,37.47
2018-11-28T09:14:33.944Z,36.17
2018-11-28T09:17:02.140Z,35.63
2018-11-28T09:19:30.369Z,42.07
2018-11-28T09:21:58.621Z,40.10
2018-11-28T09:24:26.829Z,47.83
2018-11-28T09:26:56.926Z,35.03
2018-11-28T09:29:25.149Z,33.90
2018-11-28T09:31:53.386Z,37.33
2018-11-28T09:34:21.609Z,37.23
2018-11-28T09:36:49.890Z,35.87
2018-11-28T09:39:18.114Z,32.50
2018-11-28T09:41:46.342Z,36.00
2018-11-28T09:44:14.649Z,35.90
2018-11-28T09:46:42.869Z,35.40
2018-11-28T09:49:11.096Z,39.90
2018-11-28T09:51:39.342Z,38.80
2018-11-28T09:54:07.586Z,39.07
2018-11-28T09:56:35.831Z,38.30
2018-11-28T09:59:04.179Z,45.27
2018-11-28T10:01:32.366Z,34.97
2018-11-28T10:04:00.575Z,33.87
2018-11-28T10:06:29.005Z,36.43
2018-11-28T10:08:57.239Z,41.90
2018-11-28T10:11:25.417Z,38.23
2018-11-28T10:13:53.629Z,35.27
2018-11-28T10:16:21.853Z,40.37
2018-11-28T10:18:50.041Z,41.13
2018-11-28T10:21:18.262Z,35.80
2018-11-28T10:23:46.480Z,48.47
2018-11-28T10:26:14.693Z,37.40
2018-11-28T10:28:43.554Z,45.53
2018-11-28T10:31:11.739Z,46.10
2018-11-28T10:33:39.989Z,43.67
2018-11-28T10:36:08.250Z,43.17
2018-11-28T10:38:36.642Z,46.20
2018-11-28T10:41:04.879Z,41.33
2018-11-28T10:43:33.061Z,41.47
2018-11-28T10:46:01.279Z,37.33
2018-11-28T10:48:29.507Z,41.60
2018-11-28T10:50:57.748Z,44.50
2018-11-28T10:53:26.002Z,37.83
2018-11-28T10:55:54.289Z,41.13
2018-11-28T10:58:22.493Z,42.87
2018-11-28T11:00:56.270Z,42.80
2018-11-28T11:03:29.968Z,38.50
2018-11-28T11:06:07.472Z,37.23
2018-11-28T11:08:42.192Z,40.27
2018-11-28T11:11:26.027Z,36.33
2018-11-28T11:13:59.612Z,37.10
2018-11-28T11:16:30.404Z,33.83
2018-11-28T11:18:59.158Z,36.07
2018-11-28T11:21:28.045Z,38.13
2018-11-28T11:23:56.263Z,35.37
2018-11-28T11:26:25.393Z,36.13
2018-11-28T11:28:53.585Z,38.70
2018-11-28T11:31:21.846Z,41.30
2018-11-28T11:33:50.112Z,40.57
2018-11-28T11:36:18.412Z,35.70
2018-11-28T11:38:46.640Z,36.50
2018-11-28T11:41:16.810Z,39.23
2018-11-28T11:43:45.009Z,36.10
2018-11-28T11:46:13.286Z,37.27
2018-11-28T11:48:41.523Z,38.63
2018-11-28T11:51:09.750Z,38.77
2018-11-28T11:53:38.011Z,37.37
2018-11-28T11:56:06.245Z,38.90
2018-11-28T11:58:34.457Z,28.90
2018-11-28T12:01:03.755Z,35.40
2018-11-28T12:03:31.969Z,34.20
2018-11-28T12:06:00.274Z,34.23
2018-11-28T12:08:29.206Z,35.37
2018-11-28T12:10:57.445Z,45.57
2018-11-28T12:13:26.516Z,34.17
2018-11-28T12:15:54.729Z,32.73
2018-11-28T12:18:22.996Z,37.10
2018-11-28T12:20:52.798Z,34.00
2018-11-28T12:23:21.088Z,40.37
2018-11-28T12:25:49.381Z,31.17
2018-11-28T12:28:17.701Z,41.37
2018-11-28T12:30:46.072Z,36.57
2018-11-28T12:33:14.264Z,38.17
2018-11-28T12:35:42.479Z,38.17
2018-11-28T12:38:10.800Z,34.60
2018-11-28T12:40:39.068Z,45.40
2018-11-28T12:43:08.616Z,34.17
2018-11-28T12:45:39.367Z,32.73
2018-11-28T12:48:07.615Z,38.17
2018-11-28T12:50:35.809Z,34.37
2018-11-28T12:53:04.107Z,31.90
2018-11-28T12:55:33.978Z,31.57
2018-11-28T12:58:02.181Z,36.93
2018-11-28T13:00:33.166Z,30.50
2018-11-28T13:03:01.424Z,32.50
2018-11-28T13:05:31.420Z,35.10
2018-11-28T13:07:59.612Z,34.80
2018-11-28T13:10:31.033Z,35.60
2018-11-28T13:12:59.282Z,35.53
2018-11-28T13:15:27.566Z,34.17
2018-11-28T13:17:55.785Z,33.90
2018-11-28T13:20:24.125Z,30.63
2018-11-28T13:22:53.274Z,36.73
2018-11-28T13:25:25.377Z,32.00
2018-11-28T13:27:53.746Z,28.77
2018-11-28T13:30:22.721Z,31.47
2018-11-28T13:32:51.496Z,30.77
2018-11-28T13:35:20.701Z,33.60
2018-11-28T13:37:50.006Z,38.97
2018-11-28T13:40:19.032Z,34.70
2018-11-28T13:42:47.348Z,35.93
2018-11-28T13:45:17.832Z,37.40
2018-11-28T13:47:50.108Z,31.70
2018-11-28T13:50:18.281Z,31.23
2018-11-28T13:52:48.139Z,34.63
2018-11-28T13:57:48.845Z,37.07
2018-11-28T14:00:17.113Z,33.63
2018-11-28T14:02:45.391Z,36.10
2018-11-28T14:05:13.918Z,33.43
2018-11-28T14:07:42.765Z,39.47
2018-11-28T14:10:11.901Z,34.30
2018-11-28T14:12:40.167Z,35.37
2018-11-28T14:15:11.453Z,32.70
2018-11-28T14:17:39.677Z,34.93
2018-11-28T14:20:10.104Z,35.53
2018-11-28T14:22:39.121Z,36.83
2018-11-28T14:25:09.018Z,32.93
2018-11-28T14:27:37.123Z,28.07
2018-11-28T14:30:09.914Z,35.63
2018-11-28T14:32:38.223Z,32.80
2018-11-28T14:35:07.797Z,36.83
2018-11-28T14:37:35.988Z,39.20
2018-11-28T14:40:06.211Z,36.37
2018-11-28T14:42:34.477Z,41.20
2018-11-28T14:45:02.991Z,36.33
2018-11-28T14:47:31.220Z,40.00
2018-11-28T14:49:59.466Z,34.00
2018-11-28T14:52:27.854Z,33.53
2018-11-28T14:54:56.054Z,35.17
2018-11-28T14:57:24.289Z,34.93
2018-11-28T14:59:52.701Z,32.27
2018-11-28T15:02:20.756Z,32.47
2018-11-28T15:04:49.025Z,34.83
2018-11-28T15:07:18.189Z,38.27
2018-11-28T15:09:54.077Z,34.70
2018-11-28T15:12:22.868Z,41.97
2018-11-28T15:14:51.567Z,34.63
2018-11-28T15:17:19.857Z,31.40
2018-11-28T15:19:48.290Z,38.10
2018-11-28T15:22:16.515Z,38.00
2018-11-28T15:24:44.758Z,37.23
2018-11-28T15:27:12.975Z,32.00
2018-11-28T15:29:41.272Z,33.27
2018-11-28T15:32:09.513Z,32.50
2018-11-28T15:34:37.901Z,34.50
2018-11-28T15:37:06.697Z,31.87
2018-11-28T15:39:34.867Z,33.50
2018-11-28T15:42:03.069Z,32.47
2018-11-28T15:44:31.335Z,36.00
2018-11-28T15:47:00.181Z,45.13
2018-11-28T15:49:28.664Z,33.40
2018-11-28T15:51:56.892Z,42.63
2018-11-28T15:54:25.258Z,37.50
2018-11-28T15:56:53.465Z,46.63
2018-11-28T15:59:21.673Z,37.60
2018-11-28T16:01:49.948Z,34.60
2018-11-28T16:04:18.139Z,30.03
2018-11-28T16:06:46.657Z,31.80
2018-11-28T16:09:20.332Z,32.90
2018-11-28T16:11:48.789Z,34.10
2018-11-28T16:14:17.016Z,33.00
2018-11-28T16:16:45.228Z,29.10
2018-11-28T16:19:13.491Z,31.40
2018-11-28T16:21:42.023Z,27.77
2018-11-28T16:24:10.252Z,33.50
2018-11-28T16:26:38.654Z,34.13
2018-11-28T16:29:06.894Z,33.40
2018-11-28T16:31:35.077Z,28.63
2018-11-28T16:34:03.257Z,33.43
2018-11-28T16:36:31.701Z,30.40
2018-11-28T16:39:00.000Z,32.60
2018-11-28T16:41:28.540Z,29.43
2018-11-28T16:43:56.724Z,35.70
2018-11-28T16:46:24.989Z,30.67
2018-11-28T16:48:53.215Z,34.13
2018-11-28T16:51:21.898Z,37.17
2018-11-28T16:53:50.226Z,29.70
2018-11-28T16:56:18.437Z,33.03
2018-11-28T16:58:46.660Z,29.93
2018-11-28T17:01:14.885Z,26.40
2018-11-28T17:03:43.156Z,31.67
2018-11-28T17:06:11.391Z,32.53
2018-11-28T17:08:39.561Z,27.80
2018-11-28T17:11:07.806Z,30.13
2018-11-28T17:13:36.048Z,29.60
2018-11-28T17:16:04.236Z,27.53
2018-11-28T17:18:32.451Z,28.77
2018-11-28T17:21:00.649Z,36.33
2018-11-28T17:23:29.284Z,30.20
2018-11-28T17:25:58.352Z,30.00
2018-11-28T17:28:27.917Z,29.30
2018-11-28T17:30:56.110Z,30.77
2018-11-28T17:33:24.311Z,30.93
2018-11-28T17:35:52.504Z,32.27
2018-11-28T17:38:20.780Z,30.20
2018-11-28T17:40:49.045Z,29.57
2018-11-28T17:43:17.260Z,31.20
2018-11-28T17:45:45.580Z,29.10
2018-11-28T17:48:13.936Z,34.73
2018-11-28T17:50:42.185Z,32.80
2018-11-28T17:53:13.322Z,26.13
2018-11-28T17:55:53.013Z,28.50
2018-11-28T17:58:21.346Z,33.70
2018-11-28T18:00:49.770Z,30.23
2018-11-28T18:03:18.401Z,32.47
2018-11-28T18:05:46.649Z,31.00
2018-11-28T18:08:15.639Z,28.77
2018-11-28T18:10:43.983Z,29.67
2018-11-28T18:13:14.101Z,29.90
2018-11-28T18:15:46.113Z,30.27
2018-11-28T18:18:16.040Z,36.77
2018-11-28T18:20:50.208Z,28.73
2018-11-28T18:23:14.442Z,27.40
2018-11-28T18:25:43.578Z,26.70
2018-11-28T18:28:11.867Z,31.07
2018-11-28T18:30:40.088Z,26.87
2018-11-28T18:33:09.321Z,29.63
2018-11-28T18:35:37.499Z,31.83
2018-11-28T18:38:05.998Z,31.60
2018-11-28T18:40:34.381Z,31.90
2018-11-28T18:43:02.629Z,33.47
2018-11-28T18:45:32.481Z,30.63
2018-11-28T18:48:02.236Z,30.03
2018-11-28T18:50:30.463Z,31.90
2018-11-28T18:52:58.772Z,26.50
2018-11-28T18:55:26.973Z,30.40
2018-11-28T18:57:56.116Z,31.27
2018-11-28T19:00:26.963Z,35.53
2018-11-28T19:02:55.753Z,33.03
2018-11-28T19:05:24.004Z,30.87
2018-11-28T19:07:52.266Z,34.83
2018-11-28T19:10:26.283Z,28.93
2018-11-28T19:12:50.271Z,27.60
2018-11-28T19:15:20.705Z,28.60
2018-11-28T19:17:49.331Z,32.27
2018-11-28T19:20:19.898Z,34.20
2018-11-28T19:22:48.632Z,28.63
2018-11-28T19:25:18.174Z,26.97
2018-11-28T19:27:46.624Z,29.30
2018-11-28T19:30:18.630Z,31.07
2018-11-28T19:32:46.918Z,30.50
2018-11-28T19:35:15.230Z,27.00
2018-11-28T19:37:43.699Z,31.67
2018-11-28T19:40:22.452Z,28.53
2018-11-28T19:42:50.732Z,30.57
2018-11-28T19:45:19.060Z,32.97
2018-11-28T19:47:47.399Z,32.87
2018-11-28T19:50:21.168Z,26.87
2018-11-28T19:52:49.728Z,29.30
2018-11-28T19:55:17.991Z,31.27
2018-11-28T19:57:46.212Z,35.90
2018-11-28T20:00:15.551Z,32.77
2018-11-28T20:02:44.393Z,28.27
2018-11-28T20:05:12.851Z,32.77
2018-11-28T20:07:42.365Z,29.47
2018-11-28T20:10:12.180Z,27.20
2018-11-28T20:12:40.558Z,30.07
2018-11-28T20:15:21.083Z,34.23
2018-11-28T20:17:49.822Z,29.67
2018-11-28T20:20:18.256Z,36.87
2018-11-28T20:22:46.539Z,31.87
2018-11-28T20:25:16.938Z,32.70
2018-11-28T20:27:47.343Z,32.37
2018-11-28T20:30:27.389Z,30.57
2018-11-28T20:32:55.668Z,31.70
2018-11-28T20:35:24.065Z,34.83
2018-11-28T20:37:52.837Z,35.80
2018-11-28T20:40:21.232Z,33.77
2018-11-28T20:42:50.627Z,27.40
2018-11-28T20:45:18.946Z,29.33
2018-11-28T20:47:47.254Z,28.90
2018-11-28T20:50:19.796Z,36.20
2018-11-28T20:52:54.783Z,31.80
2018-11-28T20:55:17.958Z,27.00
2018-11-28T20:57:46.205Z,33.03
2018-11-28T21:00:17.046Z,31.00
2018-11-28T21:02:45.315Z,29.10
2018-11-28T21:05:13.574Z,21.97
2018-11-28T21:07:41.992Z,26.53
2018-11-28T21:10:17.928Z,27.97
2018-11-28T21:12:46.810Z,30.33
2018-11-28T21:15:16.127Z,24.13
2018-11-28T21:17:45.114Z,27.97
2018-11-28T21:20:18.253Z,33.73
2018-11-28T21:22:51.836Z,31.47
2018-11-28T21:25:21.417Z,30.57
2018-11-28T21:27:49.862Z,27.77
2018-11-28T21:30:19.204Z,36.30
2018-11-28T21:32:48.322Z,32.40
2018-11-28T21:35:17.925Z,26.93
2018-11-28T21:37:46.188Z,28.03
2018-11-28T21:40:14.580Z,25.27
2018-11-28T21:42:42.845Z,27.07
2018-11-28T21:45:14.260Z,35.43
2018-11-28T21:47:42.571Z,30.20
2018-11-28T21:50:12.981Z,28.80
2018-11-28T21:52:41.222Z,22.27
2018-11-28T21:55:14.056Z,26.70
2018-11-28T21:57:42.789Z,30.20
2018-11-28T22:00:13.321Z,26.23
2018-11-28T22:02:41.522Z,30.53
2018-11-28T22:05:10.678Z,28.60
2018-11-28T22:07:39.119Z,27.83
2018-11-28T22:10:13.199Z,26.40
2018-11-28T22:12:42.751Z,28.40
2018-11-28T22:15:12.897Z,29.03
2018-11-28T22:17:42.367Z,25.27
2018-11-28T22:20:12.244Z,28.50
2018-11-28T22:22:40.532Z,28.90
2018-11-28T22:25:16.041Z,27.93
2018-11-28T22:27:44.382Z,27.00
2018-11-28T22:30:15.774Z,25.73
2018-11-28T22:32:44.777Z,29.47
2018-11-28T22:35:13.325Z,26.60
2018-11-28T22:37:41.658Z,26.60
2018-11-28T22:40:15.383Z,23.90
2018-11-28T22:42:43.728Z,26.63
2018-11-28T22:45:20.598Z,23.07
2018-11-28T22:47:49.626Z,25.67
2018-11-28T22:50:17.991Z,30.30
2018-11-28T22:52:46.259Z,28.27
2018-11-28T22:55:15.400Z,32.20
2018-11-28T22:57:43.760Z,27.60
2018-11-28T23:00:15.065Z,26.93
2018-11-28T23:02:53.644Z,29.67
2018-11-28T23:05:23.393Z,27.70
2018-11-28T23:07:51.640Z,24.57
2018-11-28T23:10:20.442Z,27.00
2018-11-28T23:12:48.750Z,24.20
2018-11-28T23:15:16.942Z,25.63
2018-11-28T23:17:45.185Z,27.20
2018-11-28T23:20:13.438Z,30.77
2018-11-28T23:22:41.693Z,25.90
2018-11-28T23:25:11.297Z,28.30
2018-11-28T23:27:39.496Z,27.40
2018-11-28T23:30:14.440Z,29.30
2018-11-28T23:32:42.812Z,25.43
2018-11-28T23:35:11.960Z,24.47
2018-11-28T23:37:41.111Z,24.07
2018-11-28T23:40:15.557Z,23.83
2018-11-28T23:42:43.860Z,28.20
2018-11-28T23:45:13.104Z,26.03
2018-11-28T23:47:41.414Z,27.80
2018-11-28T23:50:14.755Z,27.20
2018-11-28T23:52:43.870Z,26.87
2018-11-28T23:55:18.490Z,25.90
2018-11-28T23:57:47.185Z,27.70
